Main page
METAR-TAF:

METAR-TAF

Airports :

Niederstetten, Germany

Niederstetten Air Base

latitude: 49-24N, longitude: 009-58E, elevation: 468 m

Current weather observation

The report was made 41 minutes ago, at 02:20 UTC
Wind 5 kt from the Southeast
Temperature 17°C
Humidity 59%
Pressure 1020 hPa
Visibility 10 km or more
Few clouds at a height of 32000 ft

METAR: ETHN 280220Z 14005KT 9999 FEW320 17/09 Q1020 BLU+

Time: 05:01 (03:01 UTC)


TAF: missing

Weather observations and forecasts of more than 4000 airports (METAR and TAF reports).

The available stations are represented by yellow and red dots on the map.

Hover mouse over dot to see the name of the station.

Then click to see weather observations and forecasts.

To change the map : click on the green buttons with a black cross to zoom in, on the green button with a dash to zoom out, or on the green arrows for adjacent maps.


METAR-TAF: